Pinckney, MI

21:05 EDT le 18 avril 2015 (GMT -0400)
Ann Arbor Municipal | | Change Station
CLOSE
Current Station
Aéroport
Location: Ann Arbor,
Altitude: 837 ft
Stations météo à proximité

Alt. 837 ft 42.22 °N, 83.74 °W | Updated 12 minutes ago

Ciel dégagé
Ciel dégagé
58 ° F
Paraît 58 ° F
N
8
Vent Variable Vent de ENE

Aujourd'hui
Haut(e) -- | Bas -- ° F
--% Risque de précip.
Hier
Haut(e) -- | Bas -- ° F
Precip. -- pouce
6:50 AM 8:20 PM
Nouvelle lune, 0% visible
Pression 30.11 pouce
Visibilité 10.0 Miles terrestres
Nuages Ciel dégagé
Point de rosée 16 ° F
Humidité 19%
Précipitations 0.00 pouce
Profondeur de la couche neigeuse Non disponible.
UV 0 sur 12
Pollen 10.70 sur 12
Qualité de l'air Non disponible.
Flu Activity Regional
METAR KARB 190053Z AUTO 06007KT 10SM CLR 14/M09 A3011 RMK AO2 SLP194 T01441089

More Conditions Fewer Conditions

Pression 30.11 pouce
Visibilité 10.0 Miles terrestres
Nuages Ciel dégagé
Point de rosée 16 ° F
Humidité 19%
Précipitations 0.00 pouce
Profondeur de la couche neigeuse Non disponible.
UV 0 sur 12
Pollen 10.70 sur 12
Qualité de l'air Non disponible.
Flu Activity Regional
METAR KARB 190053Z AUTO 06007KT 10SM CLR 14/M09 A3011 RMK AO2 SLP194 T01441089

More Conditions Fewer Conditions

10-Day Weather Forecast

Almanac

Astronomie

Apr. 18, 2015 Lever Coucher
Temps réel
Crépuscule civil
Crépuscule nautique
Crépuscule astronomique
Lune
Durée de lumière visible
Longueur du jour
Tomorrow will be .
, % of the Moon is Illuminated

Extrêmes aujourd'hui

State Highs State Lows

Community

WunderPhotos

Upload Photos

1,814,609 Photos téléchargées !

WunderBlogs® & News

Nearby

Qualité de l'air

  Qualité de l'air Indice de la qualité de l'air Polluant
Not available.

Épaisseur de neige

Station Depth Altitude

Activité sismique

Ville Distance Mag. Time & Date
Minimum magnitude displayed is 2.5.

Températures des eaux côtières

Lieu Température

Stations

Stations météo à proximité

Emplacement de la station Température Refroidissement éolien Point de rosée Humidité Vent Precip. Alt. Mise à jour Type